Terminal Aerodrome Forecast
Issued by NWS

Home | Current Version | Previous Version | Text Only | Print | Product List | Glossary Off
Versions: 1 2 3 4 5 6 7 8 9 10 11 12 13 14 15 16 17 18 19 20

917
FTUS43 KMPX 251456 AAA
TAFAXN
TAF AMD
KAXN 251456Z 2515/2612 24013G20KT P6SM OVC016
     FM251600 29020G30KT P6SM VCSH OVC025
     FM260200 30016G25KT P6SM OVC050=

USA.gov is the U.S. government's official web portal to all federal, state and local government web resources and services.